sensor_id;sensor_type;location;lat;lon;timestamp;P1;durP1;ratioP1;P2;durP2;ratioP2
60847;SDS011;46681;47.696;9.140;2023-04-24T00:02:12;0.60;;;0.60;;
60847;SDS011;46681;47.696;9.140;2023-04-24T00:04:38;1.17;;;0.93;;
60847;SDS011;46681;47.696;9.140;2023-04-24T00:07:03;0.80;;;0.80;;
60847;SDS011;46681;47.696;9.140;2023-04-24T00:09:34;0.80;;;0.80;;
60847;SDS011;46681;47.696;9.140;2023-04-24T00:12:02;0.70;;;0.70;;
60847;SDS011;46681;47.696;9.140;2023-04-24T00:14:29;0.80;;;0.80;;
60847;SDS011;46681;47.696;9.140;2023-04-24T00:16:55;1.10;;;1.00;;
60847;SDS011;46681;47.696;9.140;2023-04-24T00:19:20;2.10;;;0.90;;
60847;SDS011;46681;47.696;9.140;2023-04-24T00:21:46;1.00;;;0.90;;
60847;SDS011;46681;47.696;9.140;2023-04-24T00:24:14;0.80;;;0.80;;
60847;SDS011;46681;47.696;9.140;2023-04-24T00:26:41;0.80;;;0.80;;
60847;SDS011;46681;47.696;9.140;2023-04-24T00:29:08;0.70;;;0.70;;
60847;SDS011;46681;47.696;9.140;2023-04-24T00:31:34;0.80;;;0.80;;
60847;SDS011;46681;47.696;9.140;2023-04-24T00:34:00;0.97;;;0.97;;
60847;SDS011;46681;47.696;9.140;2023-04-24T00:36:28;0.90;;;0.90;;
60847;SDS011;46681;47.696;9.140;2023-04-24T00:38:56;0.80;;;0.80;;
60847;SDS011;46681;47.696;9.140;2023-04-24T00:41:24;0.80;;;0.80;;
60847;SDS011;46681;47.696;9.140;2023-04-24T00:43:50;1.27;;;0.80;;
60847;SDS011;46681;47.696;9.140;2023-04-24T00:46:17;0.80;;;0.80;;
60847;SDS011;46681;47.696;9.140;2023-04-24T00:48:42;2.43;;;0.93;;
60847;SDS011;46681;47.696;9.140;2023-04-24T00:51:08;0.80;;;0.80;;
60847;SDS011;46681;47.696;9.140;2023-04-24T00:53:34;0.80;;;0.80;;
60847;SDS011;46681;47.696;9.140;2023-04-24T00:55:59;1.03;;;1.03;;
60847;SDS011;46681;47.696;9.140;2023-04-24T00:58:25;0.90;;;0.90;;
60847;SDS011;46681;47.696;9.140;2023-04-24T01:00:51;0.80;;;0.80;;
60847;SDS011;46681;47.696;9.140;2023-04-24T01:03:17;1.13;;;1.07;;
60847;SDS011;46681;47.696;9.140;2023-04-24T01:05:43;0.80;;;0.80;;
60847;SDS011;46681;47.696;9.140;2023-04-24T01:08:08;0.93;;;0.93;;
60847;SDS011;46681;47.696;9.140;2023-04-24T01:10:34;0.90;;;0.90;;
60847;SDS011;46681;47.696;9.140;2023-04-24T01:13:01;0.93;;;0.93;;
60847;SDS011;46681;47.696;9.140;2023-04-24T01:15:26;1.20;;;1.00;;
60847;SDS011;46681;47.696;9.140;2023-04-24T01:17:53;1.10;;;1.00;;
60847;SDS011;46681;47.696;9.140;2023-04-24T01:20:20;0.80;;;0.80;;
60847;SDS011;46681;47.696;9.140;2023-04-24T01:22:48;0.83;;;0.83;;
60847;SDS011;46681;47.696;9.140;2023-04-24T01:25:14;1.00;;;1.00;;
60847;SDS011;46681;47.696;9.140;2023-04-24T01:27:41;0.83;;;0.83;;
60847;SDS011;46681;47.696;9.140;2023-04-24T01:30:07;0.90;;;0.90;;
60847;SDS011;46681;47.696;9.140;2023-04-24T01:32:33;0.87;;;0.87;;
60847;SDS011;46681;47.696;9.140;2023-04-24T01:35:00;1.10;;;1.10;;
60847;SDS011;46681;47.696;9.140;2023-04-24T01:37:26;0.70;;;0.70;;
60847;SDS011;46681;47.696;9.140;2023-04-24T01:39:51;1.23;;;0.90;;
60847;SDS011;46681;47.696;9.140;2023-04-24T01:42:17;0.90;;;0.90;;
60847;SDS011;46681;47.696;9.140;2023-04-24T01:44:43;0.83;;;0.83;;
60847;SDS011;46681;47.696;9.140;2023-04-24T01:47:10;1.03;;;1.03;;
60847;SDS011;46681;47.696;9.140;2023-04-24T01:49:37;1.53;;;0.90;;
60847;SDS011;46681;47.696;9.140;2023-04-24T01:52:03;0.80;;;0.80;;
60847;SDS011;46681;47.696;9.140;2023-04-24T01:54:29;0.80;;;0.80;;
60847;SDS011;46681;47.696;9.140;2023-04-24T01:56:55;1.10;;;0.93;;
60847;SDS011;46681;47.696;9.140;2023-04-24T01:59:21;0.80;;;0.80;;
60847;SDS011;46681;47.696;9.140;2023-04-24T02:01:49;0.90;;;0.90;;
60847;SDS011;46681;47.696;9.140;2023-04-24T02:04:15;0.83;;;0.70;;
60847;SDS011;46681;47.696;9.140;2023-04-24T02:06:40;0.80;;;0.80;;
60847;SDS011;46681;47.696;9.140;2023-04-24T02:09:07;0.80;;;0.80;;
60847;SDS011;46681;47.696;9.140;2023-04-24T02:11:33;0.73;;;0.73;;
60847;SDS011;46681;47.696;9.140;2023-04-24T02:13:58;1.03;;;0.80;;
60847;SDS011;46681;47.696;9.140;2023-04-24T02:16:24;0.70;;;0.70;;
60847;SDS011;46681;47.696;9.140;2023-04-24T02:18:49;0.60;;;0.60;;
60847;SDS011;46681;47.696;9.140;2023-04-24T02:21:15;0.77;;;0.77;;
60847;SDS011;46681;47.696;9.140;2023-04-24T02:23:40;0.70;;;0.70;;
60847;SDS011;46681;47.696;9.140;2023-04-24T02:26:08;0.70;;;0.70;;
60847;SDS011;46681;47.696;9.140;2023-04-24T02:28:35;0.67;;;0.60;;
60847;SDS011;46681;47.696;9.140;2023-04-24T02:31:00;0.60;;;0.60;;
60847;SDS011;46681;47.696;9.140;2023-04-24T02:33:26;0.70;;;0.70;;
60847;SDS011;46681;47.696;9.140;2023-04-24T02:35:51;0.93;;;0.83;;
60847;SDS011;46681;47.696;9.140;2023-04-24T02:38:17;0.80;;;0.80;;
60847;SDS011;46681;47.696;9.140;2023-04-24T02:40:43;0.70;;;0.70;;
60847;SDS011;46681;47.696;9.140;2023-04-24T02:43:08;0.70;;;0.70;;
60847;SDS011;46681;47.696;9.140;2023-04-24T02:45:34;0.70;;;0.70;;
60847;SDS011;46681;47.696;9.140;2023-04-24T02:47:59;0.60;;;0.60;;
60847;SDS011;46681;47.696;9.140;2023-04-24T02:50:25;0.70;;;0.70;;
60847;SDS011;46681;47.696;9.140;2023-04-24T02:52:53;0.60;;;0.60;;
60847;SDS011;46681;47.696;9.140;2023-04-24T02:55:20;0.80;;;0.80;;
60847;SDS011;46681;47.696;9.140;2023-04-24T02:57:47;0.80;;;0.80;;
60847;SDS011;46681;47.696;9.140;2023-04-24T03:00:14;1.17;;;0.77;;
60847;SDS011;46681;47.696;9.140;2023-04-24T03:02:39;1.13;;;0.60;;
60847;SDS011;46681;47.696;9.140;2023-04-24T03:05:05;1.70;;;0.60;;
60847;SDS011;46681;47.696;9.140;2023-04-24T03:07:31;0.73;;;0.60;;
60847;SDS011;46681;47.696;9.140;2023-04-24T03:09:56;0.60;;;0.60;;
60847;SDS011;46681;47.696;9.140;2023-04-24T03:12:22;0.60;;;0.60;;
60847;SDS011;46681;47.696;9.140;2023-04-24T03:14:47;2.47;;;0.50;;
60847;SDS011;46681;47.696;9.140;2023-04-24T03:17:12;3.13;;;0.60;;
60847;SDS011;46681;47.696;9.140;2023-04-24T03:19:38;0.50;;;0.50;;
60847;SDS011;46681;47.696;9.140;2023-04-24T03:22:06;0.60;;;0.60;;
60847;SDS011;46681;47.696;9.140;2023-04-24T03:24:32;0.60;;;0.60;;
60847;SDS011;46681;47.696;9.140;2023-04-24T03:26:57;0.83;;;0.70;;
60847;SDS011;46681;47.696;9.140;2023-04-24T03:29:23;0.40;;;0.40;;
60847;SDS011;46681;47.696;9.140;2023-04-24T03:31:48;0.60;;;0.60;;
60847;SDS011;46681;47.696;9.140;2023-04-24T03:34:16;1.40;;;0.77;;
60847;SDS011;46681;47.696;9.140;2023-04-24T03:36:42;1.30;;;0.70;;
60847;SDS011;46681;47.696;9.140;2023-04-24T03:39:09;0.60;;;0.60;;
60847;SDS011;46681;47.696;9.140;2023-04-24T03:41:35;0.67;;;0.67;;
60847;SDS011;46681;47.696;9.140;2023-04-24T03:44:00;0.60;;;0.60;;
60847;SDS011;46681;47.696;9.140;2023-04-24T03:46:26;0.60;;;0.60;;
60847;SDS011;46681;47.696;9.140;2023-04-24T03:48:53;0.60;;;0.60;;
60847;SDS011;46681;47.696;9.140;2023-04-24T03:51:19;0.60;;;0.60;;
60847;SDS011;46681;47.696;9.140;2023-04-24T03:53:44;1.40;;;0.53;;
60847;SDS011;46681;47.696;9.140;2023-04-24T03:56:11;0.77;;;0.77;;
60847;SDS011;46681;47.696;9.140;2023-04-24T03:58:37;1.00;;;0.60;;
60847;SDS011;46681;47.696;9.140;2023-04-24T04:01:04;0.60;;;0.60;;
60847;SDS011;46681;47.696;9.140;2023-04-24T04:03:31;0.60;;;0.60;;
60847;SDS011;46681;47.696;9.140;2023-04-24T04:05:57;0.50;;;0.50;;
60847;SDS011;46681;47.696;9.140;2023-04-24T04:08:22;0.60;;;0.60;;
60847;SDS011;46681;47.696;9.140;2023-04-24T04:10:49;0.67;;;0.60;;
60847;SDS011;46681;47.696;9.140;2023-04-24T04:13:14;0.63;;;0.63;;
60847;SDS011;46681;47.696;9.140;2023-04-24T04:15:40;0.60;;;0.60;;
60847;SDS011;46681;47.696;9.140;2023-04-24T04:18:06;0.70;;;0.70;;
60847;SDS011;46681;47.696;9.140;2023-04-24T04:20:34;0.60;;;0.60;;
60847;SDS011;46681;47.696;9.140;2023-04-24T04:23:00;0.80;;;0.80;;
60847;SDS011;46681;47.696;9.140;2023-04-24T04:25:28;0.60;;;0.60;;
60847;SDS011;46681;47.696;9.140;2023-04-24T04:27:55;2.00;;;0.60;;
60847;SDS011;46681;47.696;9.140;2023-04-24T04:30:21;0.70;;;0.70;;
60847;SDS011;46681;47.696;9.140;2023-04-24T04:32:46;0.63;;;0.50;;
60847;SDS011;46681;47.696;9.140;2023-04-24T04:35:15;0.83;;;0.70;;
60847;SDS011;46681;47.696;9.140;2023-04-24T04:37:43;0.70;;;0.70;;
60847;SDS011;46681;47.696;9.140;2023-04-24T04:40:12;0.73;;;0.73;;
60847;SDS011;46681;47.696;9.140;2023-04-24T04:42:42;0.60;;;0.60;;
60847;SDS011;46681;47.696;9.140;2023-04-24T04:45:08;0.60;;;0.60;;
60847;SDS011;46681;47.696;9.140;2023-04-24T04:47:34;0.60;;;0.60;;
60847;SDS011;46681;47.696;9.140;2023-04-24T04:49:59;2.10;;;0.63;;
60847;SDS011;46681;47.696;9.140;2023-04-24T04:52:25;2.20;;;0.70;;
60847;SDS011;46681;47.696;9.140;2023-04-24T04:54:53;4.60;;;0.70;;
60847;SDS011;46681;47.696;9.140;2023-04-24T04:57:19;1.60;;;0.50;;
60847;SDS011;46681;47.696;9.140;2023-04-24T04:59:46;0.70;;;0.70;;
60847;SDS011;46681;47.696;9.140;2023-04-24T05:02:13;1.70;;;0.97;;
60847;SDS011;46681;47.696;9.140;2023-04-24T05:04:40;0.70;;;0.70;;
60847;SDS011;46681;47.696;9.140;2023-04-24T05:07:08;0.90;;;0.60;;
60847;SDS011;46681;47.696;9.140;2023-04-24T05:09:35;0.80;;;0.80;;
60847;SDS011;46681;47.696;9.140;2023-04-24T05:12:02;1.00;;;0.63;;
60847;SDS011;46681;47.696;9.140;2023-04-24T05:14:29;0.70;;;0.70;;
60847;SDS011;46681;47.696;9.140;2023-04-24T05:16:58;4.63;;;0.83;;
60847;SDS011;46681;47.696;9.140;2023-04-24T05:19:23;1.60;;;0.60;;
60847;SDS011;46681;47.696;9.140;2023-04-24T05:21:50;1.27;;;0.80;;
60847;SDS011;46681;47.696;9.140;2023-04-24T05:24:16;1.03;;;0.63;;
60847;SDS011;46681;47.696;9.140;2023-04-24T05:26:46;0.87;;;0.73;;
60847;SDS011;46681;47.696;9.140;2023-04-24T05:29:14;0.60;;;0.60;;
60847;SDS011;46681;47.696;9.140;2023-04-24T05:31:40;1.70;;;0.70;;
60847;SDS011;46681;47.696;9.140;2023-04-24T05:34:05;3.40;;;0.90;;
60847;SDS011;46681;47.696;9.140;2023-04-24T05:36:36;5.50;;;0.90;;
60847;SDS011;46681;47.696;9.140;2023-04-24T05:39:07;0.87;;;0.87;;
60847;SDS011;46681;47.696;9.140;2023-04-24T05:41:36;3.10;;;0.70;;
60847;SDS011;46681;47.696;9.140;2023-04-24T05:44:03;2.57;;;1.03;;
60847;SDS011;46681;47.696;9.140;2023-04-24T05:46:35;5.73;;;0.80;;
60847;SDS011;46681;47.696;9.140;2023-04-24T05:49:04;1.53;;;0.80;;
60847;SDS011;46681;47.696;9.140;2023-04-24T05:51:32;2.37;;;0.63;;
60847;SDS011;46681;47.696;9.140;2023-04-24T05:53:58;0.70;;;0.70;;
60847;SDS011;46681;47.696;9.140;2023-04-24T05:56:23;0.60;;;0.60;;
60847;SDS011;46681;47.696;9.140;2023-04-24T05:58:51;0.63;;;0.60;;
60847;SDS011;46681;47.696;9.140;2023-04-24T06:01:17;0.97;;;0.70;;
60847;SDS011;46681;47.696;9.140;2023-04-24T06:03:43;1.17;;;0.80;;
60847;SDS011;46681;47.696;9.140;2023-04-24T06:06:10;1.40;;;0.80;;
60847;SDS011;46681;47.696;9.140;2023-04-24T06:08:38;0.60;;;0.60;;
60847;SDS011;46681;47.696;9.140;2023-04-24T06:11:05;2.53;;;0.80;;
60847;SDS011;46681;47.696;9.140;2023-04-24T06:13:37;0.60;;;0.60;;
60847;SDS011;46681;47.696;9.140;2023-04-24T06:16:06;0.60;;;0.60;;
60847;SDS011;46681;47.696;9.140;2023-04-24T06:18:38;0.60;;;0.60;;
60847;SDS011;46681;47.696;9.140;2023-04-24T06:21:03;1.47;;;0.70;;
60847;SDS011;46681;47.696;9.140;2023-04-24T06:23:36;0.60;;;0.60;;
60847;SDS011;46681;47.696;9.140;2023-04-24T06:26:03;0.60;;;0.60;;
60847;SDS011;46681;47.696;9.140;2023-04-24T06:28:29;0.77;;;0.77;;
60847;SDS011;46681;47.696;9.140;2023-04-24T06:30:56;0.73;;;0.73;;
60847;SDS011;46681;47.696;9.140;2023-04-24T06:33:22;0.67;;;0.67;;
60847;SDS011;46681;47.696;9.140;2023-04-24T06:35:50;0.87;;;0.87;;
60847;SDS011;46681;47.696;9.140;2023-04-24T06:38:15;0.70;;;0.70;;
60847;SDS011;46681;47.696;9.140;2023-04-24T06:40:46;0.93;;;0.80;;
60847;SDS011;46681;47.696;9.140;2023-04-24T06:43:13;0.77;;;0.77;;
60847;SDS011;46681;47.696;9.140;2023-04-24T06:45:39;0.83;;;0.83;;
60847;SDS011;46681;47.696;9.140;2023-04-24T06:48:10;1.20;;;1.10;;
60847;SDS011;46681;47.696;9.140;2023-04-24T06:50:36;0.77;;;0.77;;
60847;SDS011;46681;47.696;9.140;2023-04-24T06:53:05;1.60;;;0.90;;
60847;SDS011;46681;47.696;9.140;2023-04-24T06:55:30;1.20;;;1.10;;
60847;SDS011;46681;47.696;9.140;2023-04-24T06:57:56;1.30;;;0.93;;
60847;SDS011;46681;47.696;9.140;2023-04-24T07:00:24;1.00;;;1.00;;
60847;SDS011;46681;47.696;9.140;2023-04-24T07:02:49;1.00;;;1.00;;
60847;SDS011;46681;47.696;9.140;2023-04-24T07:05:15;1.03;;;1.03;;
60847;SDS011;46681;47.696;9.140;2023-04-24T07:07:41;1.13;;;1.03;;
60847;SDS011;46681;47.696;9.140;2023-04-24T07:10:08;1.20;;;1.10;;
60847;SDS011;46681;47.696;9.140;2023-04-24T07:12:35;1.27;;;1.17;;
60847;SDS011;46681;47.696;9.140;2023-04-24T07:15:01;1.23;;;1.17;;
60847;SDS011;46681;47.696;9.140;2023-04-24T07:17:42;1.40;;;1.30;;
60847;SDS011;46681;47.696;9.140;2023-04-24T07:20:16;1.20;;;1.10;;
60847;SDS011;46681;47.696;9.140;2023-04-24T07:22:44;1.80;;;1.70;;
60847;SDS011;46681;47.696;9.140;2023-04-24T07:25:11;2.83;;;1.43;;
60847;SDS011;46681;47.696;9.140;2023-04-24T07:27:37;4.83;;;1.50;;
60847;SDS011;46681;47.696;9.140;2023-04-24T07:30:04;1.40;;;1.40;;
60847;SDS011;46681;47.696;9.140;2023-04-24T07:32:34;2.33;;;1.40;;
60847;SDS011;46681;47.696;9.140;2023-04-24T07:35:02;1.27;;;1.20;;
60847;SDS011;46681;47.696;9.140;2023-04-24T07:37:28;3.50;;;1.40;;
60847;SDS011;46681;47.696;9.140;2023-04-24T07:39:53;1.80;;;1.40;;
60847;SDS011;46681;47.696;9.140;2023-04-24T07:42:27;2.80;;;1.33;;
60847;SDS011;46681;47.696;9.140;2023-04-24T07:45:01;1.20;;;1.10;;
60847;SDS011;46681;47.696;9.140;2023-04-24T07:47:29;1.10;;;1.10;;
60847;SDS011;46681;47.696;9.140;2023-04-24T07:50:03;1.80;;;1.50;;
60847;SDS011;46681;47.696;9.140;2023-04-24T07:52:44;3.00;;;1.50;;
60847;SDS011;46681;47.696;9.140;2023-04-24T07:55:11;2.60;;;1.83;;
60847;SDS011;46681;47.696;9.140;2023-04-24T07:57:39;2.53;;;1.50;;
60847;SDS011;46681;47.696;9.140;2023-04-24T08:00:14;1.57;;;1.47;;
60847;SDS011;46681;47.696;9.140;2023-04-24T08:02:59;2.13;;;1.50;;
60847;SDS011;46681;47.696;9.140;2023-04-24T08:05:24;1.53;;;1.20;;
60847;SDS011;46681;47.696;9.140;2023-04-24T08:07:54;1.80;;;1.40;;
60847;SDS011;46681;47.696;9.140;2023-04-24T08:10:27;2.30;;;1.20;;
60847;SDS011;46681;47.696;9.140;2023-04-24T08:12:53;1.40;;;1.30;;
60847;SDS011;46681;47.696;9.140;2023-04-24T08:15:33;1.80;;;1.40;;
60847;SDS011;46681;47.696;9.140;2023-04-24T08:18:07;1.80;;;1.40;;
60847;SDS011;46681;47.696;9.140;2023-04-24T08:20:33;1.53;;;1.43;;
60847;SDS011;46681;47.696;9.140;2023-04-24T08:23:00;2.37;;;1.37;;
60847;SDS011;46681;47.696;9.140;2023-04-24T08:25:32;1.40;;;1.30;;
60847;SDS011;46681;47.696;9.140;2023-04-24T08:28:01;1.37;;;1.27;;
60847;SDS011;46681;47.696;9.140;2023-04-24T08:30:36;2.23;;;1.03;;
60847;SDS011;46681;47.696;9.140;2023-04-24T08:33:04;1.10;;;1.10;;
60847;SDS011;46681;47.696;9.140;2023-04-24T08:35:32;2.00;;;1.30;;
60847;SDS011;46681;47.696;9.140;2023-04-24T08:38:15;2.97;;;1.20;;
60847;SDS011;46681;47.696;9.140;2023-04-24T08:40:49;2.33;;;1.30;;
60847;SDS011;46681;47.696;9.140;2023-04-24T08:43:20;0.90;;;0.90;;
60847;SDS011;46681;47.696;9.140;2023-04-24T08:46:03;1.10;;;1.10;;
60847;SDS011;46681;47.696;9.140;2023-04-24T08:48:31;2.90;;;1.60;;
60847;SDS011;46681;47.696;9.140;2023-04-24T08:51:00;1.77;;;1.20;;
60847;SDS011;46681;47.696;9.140;2023-04-24T08:53:34;1.33;;;1.33;;
60847;SDS011;46681;47.696;9.140;2023-04-24T08:56:09;1.67;;;1.30;;
60847;SDS011;46681;47.696;9.140;2023-04-24T08:58:36;1.10;;;1.10;;
60847;SDS011;46681;47.696;9.140;2023-04-24T09:01:20;1.17;;;1.00;;
60847;SDS011;46681;47.696;9.140;2023-04-24T09:03:52;1.53;;;1.37;;
60847;SDS011;46681;47.696;9.140;2023-04-24T09:06:40;2.20;;;1.40;;
60847;SDS011;46681;47.696;9.140;2023-04-24T09:09:27;2.27;;;1.30;;
60847;SDS011;46681;47.696;9.140;2023-04-24T09:12:08;1.40;;;1.30;;
60847;SDS011;46681;47.696;9.140;2023-04-24T09:14:40;2.37;;;1.43;;
60847;SDS011;46681;47.696;9.140;2023-04-24T09:17:17;1.53;;;1.07;;
60847;SDS011;46681;47.696;9.140;2023-04-24T09:19:52;1.73;;;1.43;;
60847;SDS011;46681;47.696;9.140;2023-04-24T09:22:22;1.50;;;1.40;;
60847;SDS011;46681;47.696;9.140;2023-04-24T09:25:11;2.17;;;1.30;;
60847;SDS011;46681;47.696;9.140;2023-04-24T09:27:43;1.20;;;1.10;;
60847;SDS011;46681;47.696;9.140;2023-04-24T09:30:22;1.90;;;1.27;;
60847;SDS011;46681;47.696;9.140;2023-04-24T09:33:10;2.50;;;1.50;;
60847;SDS011;46681;47.696;9.140;2023-04-24T09:35:58;5.03;;;1.67;;
60847;SDS011;46681;47.696;9.140;2023-04-24T09:38:41;2.43;;;1.30;;
60847;SDS011;46681;47.696;9.140;2023-04-24T09:41:13;2.07;;;1.43;;
60847;SDS011;46681;47.696;9.140;2023-04-24T09:44:10;1.87;;;1.70;;
60847;SDS011;46681;47.696;9.140;2023-04-24T09:47:00;1.40;;;1.30;;
60847;SDS011;46681;47.696;9.140;2023-04-24T09:49:29;1.80;;;1.57;;
60847;SDS011;46681;47.696;9.140;2023-04-24T09:54:53;1.63;;;1.47;;
60847;SDS011;46681;47.696;9.140;2023-04-24T09:57:49;2.10;;;1.57;;
60847;SDS011;46681;47.696;9.140;2023-04-24T10:00:42;2.77;;;1.50;;
60847;SDS011;46681;47.696;9.140;2023-04-24T10:03:14;3.77;;;1.47;;
60847;SDS011;46681;47.696;9.140;2023-04-24T10:06:08;1.53;;;1.43;;
60847;SDS011;46681;47.696;9.140;2023-04-24T10:08:43;1.67;;;1.40;;
60847;SDS011;46681;47.696;9.140;2023-04-24T10:11:22;1.97;;;1.20;;
60847;SDS011;46681;47.696;9.140;2023-04-24T10:14:04;1.50;;;1.40;;
60847;SDS011;46681;47.696;9.140;2023-04-24T10:16:31;4.57;;;1.10;;
60847;SDS011;46681;47.696;9.140;2023-04-24T10:19:03;1.30;;;1.20;;
60847;SDS011;46681;47.696;9.140;2023-04-24T10:21:37;1.50;;;1.40;;
60847;SDS011;46681;47.696;9.140;2023-04-24T10:24:12;1.50;;;1.40;;
60847;SDS011;46681;47.696;9.140;2023-04-24T10:26:55;1.73;;;1.43;;
60847;SDS011;46681;47.696;9.140;2023-04-24T10:29:33;2.27;;;1.10;;
60847;SDS011;46681;47.696;9.140;2023-04-24T10:32:16;1.67;;;1.23;;
60847;SDS011;46681;47.696;9.140;2023-04-24T10:34:51;1.40;;;1.30;;
60847;SDS011;46681;47.696;9.140;2023-04-24T10:37:19;1.33;;;1.23;;
60847;SDS011;46681;47.696;9.140;2023-04-24T10:40:12;2.40;;;1.50;;
60847;SDS011;46681;47.696;9.140;2023-04-24T10:43:04;2.10;;;1.40;;
60847;SDS011;46681;47.696;9.140;2023-04-24T10:45:35;1.40;;;1.30;;
60847;SDS011;46681;47.696;9.140;2023-04-24T10:48:18;1.30;;;1.20;;
60847;SDS011;46681;47.696;9.140;2023-04-24T10:51:12;3.93;;;1.37;;
60847;SDS011;46681;47.696;9.140;2023-04-24T11:00:34;4.33;;;1.37;;
60847;SDS011;46681;47.696;9.140;2023-04-24T11:06:43;1.73;;;1.40;;
60847;SDS011;46681;47.696;9.140;2023-04-24T11:09:15;1.50;;;1.40;;
60847;SDS011;46681;47.696;9.140;2023-04-24T11:11:45;2.40;;;1.40;;
60847;SDS011;46681;47.696;9.140;2023-04-24T11:17:42;1.60;;;1.50;;
60847;SDS011;46681;47.696;9.140;2023-04-24T11:20:16;3.00;;;1.20;;
60847;SDS011;46681;47.696;9.140;2023-04-24T11:22:58;1.07;;;1.07;;
60847;SDS011;46681;47.696;9.140;2023-04-24T11:25:36;1.60;;;1.50;;
60847;SDS011;46681;47.696;9.140;2023-04-24T11:28:07;2.23;;;1.40;;
60847;SDS011;46681;47.696;9.140;2023-04-24T11:30:58;2.60;;;1.50;;
60847;SDS011;46681;47.696;9.140;2023-04-24T11:34:07;1.47;;;1.37;;
60847;SDS011;46681;47.696;9.140;2023-04-24T11:36:36;1.80;;;1.17;;
60847;SDS011;46681;47.696;9.140;2023-04-24T11:39:09;2.83;;;1.13;;
60847;SDS011;46681;47.696;9.140;2023-04-24T11:41:48;1.70;;;1.27;;
60847;SDS011;46681;47.696;9.140;2023-04-24T11:44:41;3.03;;;1.70;;
60847;SDS011;46681;47.696;9.140;2023-04-24T11:47:31;2.23;;;1.27;;
60847;SDS011;46681;47.696;9.140;2023-04-24T11:50:10;1.90;;;1.27;;
60847;SDS011;46681;47.696;9.140;2023-04-24T11:52:56;1.60;;;1.40;;
60847;SDS011;46681;47.696;9.140;2023-04-24T11:55:23;1.90;;;1.23;;
60847;SDS011;46681;47.696;9.140;2023-04-24T11:57:57;1.10;;;1.10;;
60847;SDS011;46681;47.696;9.140;2023-04-24T12:00:30;1.20;;;1.10;;
60847;SDS011;46681;47.696;9.140;2023-04-24T12:03:23;3.07;;;1.57;;
60847;SDS011;46681;47.696;9.140;2023-04-24T12:05:51;1.80;;;1.20;;
60847;SDS011;46681;47.696;9.140;2023-04-24T12:11:14;2.03;;;1.30;;
60847;SDS011;46681;47.696;9.140;2023-04-24T12:13:48;1.53;;;1.20;;
60847;SDS011;46681;47.696;9.140;2023-04-24T12:19:36;1.90;;;1.30;;
60847;SDS011;46681;47.696;9.140;2023-04-24T12:22:06;1.43;;;1.30;;
60847;SDS011;46681;47.696;9.140;2023-04-24T12:25:02;2.20;;;1.10;;
60847;SDS011;46681;47.696;9.140;2023-04-24T12:27:38;3.33;;;1.10;;
60847;SDS011;46681;47.696;9.140;2023-04-24T12:30:43;1.73;;;1.10;;
60847;SDS011;46681;47.696;9.140;2023-04-24T12:33:19;1.57;;;1.00;;
60847;SDS011;46681;47.696;9.140;2023-04-24T12:35:55;1.23;;;1.13;;
60847;SDS011;46681;47.696;9.140;2023-04-24T12:38:39;0.90;;;0.90;;
60847;SDS011;46681;47.696;9.140;2023-04-24T12:41:06;5.30;;;1.20;;
60847;SDS011;46681;47.696;9.140;2023-04-24T12:43:36;2.73;;;1.20;;
60847;SDS011;46681;47.696;9.140;2023-04-24T12:46:12;1.20;;;1.20;;
60847;SDS011;46681;47.696;9.140;2023-04-24T12:48:46;3.03;;;1.00;;
60847;SDS011;46681;47.696;9.140;2023-04-24T12:51:34;1.37;;;1.03;;
60847;SDS011;46681;47.696;9.140;2023-04-24T12:54:05;2.37;;;1.30;;
60847;SDS011;46681;47.696;9.140;2023-04-24T12:56:48;2.67;;;1.27;;
60847;SDS011;46681;47.696;9.140;2023-04-24T12:59:22;1.80;;;1.40;;
60847;SDS011;46681;47.696;9.140;2023-04-24T13:01:54;1.50;;;1.30;;
60847;SDS011;46681;47.696;9.140;2023-04-24T13:04:30;2.87;;;1.30;;
60847;SDS011;46681;47.696;9.140;2023-04-24T13:07:22;1.10;;;1.00;;
60847;SDS011;46681;47.696;9.140;2023-04-24T13:10:20;1.20;;;1.10;;
60847;SDS011;46681;47.696;9.140;2023-04-24T13:16:10;1.00;;;1.00;;
60847;SDS011;46681;47.696;9.140;2023-04-24T13:18:41;1.87;;;1.50;;
60847;SDS011;46681;47.696;9.140;2023-04-24T13:24:02;2.77;;;1.20;;
60847;SDS011;46681;47.696;9.140;2023-04-24T13:26:35;2.10;;;1.07;;
60847;SDS011;46681;47.696;9.140;2023-04-24T13:29:14;1.10;;;1.00;;
60847;SDS011;46681;47.696;9.140;2023-04-24T13:31:44;1.00;;;1.00;;
60847;SDS011;46681;47.696;9.140;2023-04-24T13:37:07;2.13;;;1.00;;
60847;SDS011;46681;47.696;9.140;2023-04-24T13:39:36;1.77;;;1.20;;
60847;SDS011;46681;47.696;9.140;2023-04-24T13:42:02;3.00;;;1.20;;
60847;SDS011;46681;47.696;9.140;2023-04-24T13:44:37;1.67;;;1.20;;
60847;SDS011;46681;47.696;9.140;2023-04-24T13:47:05;1.37;;;1.27;;
60847;SDS011;46681;47.696;9.140;2023-04-24T13:49:42;1.33;;;0.90;;
60847;SDS011;46681;47.696;9.140;2023-04-24T13:58:22;1.00;;;1.00;;
60847;SDS011;46681;47.696;9.140;2023-04-24T14:03:43;1.10;;;1.10;;
60847;SDS011;46681;47.696;9.140;2023-04-24T14:06:32;1.17;;;1.10;;
60847;SDS011;46681;47.696;9.140;2023-04-24T14:09:05;1.47;;;1.37;;
60847;SDS011;46681;47.696;9.140;2023-04-24T14:11:49;1.90;;;1.20;;
60847;SDS011;46681;47.696;9.140;2023-04-24T14:14:29;2.27;;;1.07;;
60847;SDS011;46681;47.696;9.140;2023-04-24T14:20:11;1.10;;;1.00;;
60847;SDS011;46681;47.696;9.140;2023-04-24T14:23:07;1.53;;;1.17;;
60847;SDS011;46681;47.696;9.140;2023-04-24T14:25:45;2.50;;;1.43;;
60847;SDS011;46681;47.696;9.140;2023-04-24T14:28:22;2.03;;;1.10;;
60847;SDS011;46681;47.696;9.140;2023-04-24T14:31:03;1.30;;;1.20;;
60847;SDS011;46681;47.696;9.140;2023-04-24T14:33:47;1.23;;;1.10;;
60847;SDS011;46681;47.696;9.140;2023-04-24T14:36:22;1.63;;;1.20;;
60847;SDS011;46681;47.696;9.140;2023-04-24T14:38:52;1.40;;;1.30;;
60847;SDS011;46681;47.696;9.140;2023-04-24T14:41:26;1.40;;;1.30;;
60847;SDS011;46681;47.696;9.140;2023-04-24T14:44:09;3.03;;;1.10;;
60847;SDS011;46681;47.696;9.140;2023-04-24T14:46:37;2.30;;;1.30;;
60847;SDS011;46681;47.696;9.140;2023-04-24T14:49:06;2.53;;;1.20;;
60847;SDS011;46681;47.696;9.140;2023-04-24T14:51:50;2.33;;;1.37;;
60847;SDS011;46681;47.696;9.140;2023-04-24T14:54:15;3.87;;;1.60;;
60847;SDS011;46681;47.696;9.140;2023-04-24T14:56:44;1.57;;;1.10;;
60847;SDS011;46681;47.696;9.140;2023-04-24T14:59:15;2.00;;;1.10;;
60847;SDS011;46681;47.696;9.140;2023-04-24T15:01:48;2.20;;;1.00;;
60847;SDS011;46681;47.696;9.140;2023-04-24T15:04:17;2.20;;;1.20;;
60847;SDS011;46681;47.696;9.140;2023-04-24T15:06:48;1.40;;;1.10;;
60847;SDS011;46681;47.696;9.140;2023-04-24T15:09:13;1.23;;;1.10;;
60847;SDS011;46681;47.696;9.140;2023-04-24T15:11:46;1.13;;;1.13;;
60847;SDS011;46681;47.696;9.140;2023-04-24T15:14:12;1.63;;;1.00;;
60847;SDS011;46681;47.696;9.140;2023-04-24T15:16:39;1.53;;;1.20;;
60847;SDS011;46681;47.696;9.140;2023-04-24T15:19:11;1.00;;;1.00;;
60847;SDS011;46681;47.696;9.140;2023-04-24T15:21:37;1.33;;;1.10;;
60847;SDS011;46681;47.696;9.140;2023-04-24T15:24:04;1.87;;;1.03;;
60847;SDS011;46681;47.696;9.140;2023-04-24T15:26:44;1.50;;;1.40;;
60847;SDS011;46681;47.696;9.140;2023-04-24T15:29:20;1.27;;;1.17;;
60847;SDS011;46681;47.696;9.140;2023-04-24T15:31:46;2.10;;;1.50;;
60847;SDS011;46681;47.696;9.140;2023-04-24T15:34:22;1.20;;;1.10;;
60847;SDS011;46681;47.696;9.140;2023-04-24T15:36:58;1.30;;;1.10;;
60847;SDS011;46681;47.696;9.140;2023-04-24T15:39:41;1.40;;;1.30;;
60847;SDS011;46681;47.696;9.140;2023-04-24T15:42:10;1.33;;;1.20;;
60847;SDS011;46681;47.696;9.140;2023-04-24T15:44:40;1.47;;;1.10;;
60847;SDS011;46681;47.696;9.140;2023-04-24T15:47:18;1.63;;;1.10;;
60847;SDS011;46681;47.696;9.140;2023-04-24T15:50:10;1.63;;;1.30;;
60847;SDS011;46681;47.696;9.140;2023-04-24T15:52:39;1.10;;;1.00;;
60847;SDS011;46681;47.696;9.140;2023-04-24T15:55:21;1.50;;;1.40;;
60847;SDS011;46681;47.696;9.140;2023-04-24T15:57:54;2.57;;;1.50;;